Time;durP1;ratioP1;P1;durP2;ratioP2;P2;SDS_P1;SDS_P2;PMS_P1;PMS_P2;Temp;Humidity;BMP_temperature;BMP_pressure;BME280_temperature;BME280_humidity;BME280_pressure;Samples;Min_cycle;Max_cycle;Signal;HPM_P1;HPM_P2
2021/10/04 00:01:44;;;;;;;0.83;0.83;;;;;;;17.72;79.99;96258.50;4975586;28;20185;-58
2021/10/04 00:04:09;;;;;;;1.87;1.00;;;;;;;17.62;80.59;96255.88;4975286;28;20174;-53
2021/10/04 00:06:35;;;;;;;0.90;0.90;;;;;;;17.54;80.68;96248.47;4975574;28;20285;-58
2021/10/04 00:09:00;;;;;;;1.23;1.00;;;;;;;17.59;80.48;96259.88;4974340;28;20280;-59
2021/10/04 00:11:26;;;;;;;0.90;0.90;;;;;;;17.62;80.55;96264.66;4975443;28;20695;-58
2021/10/04 00:13:51;;;;;;;0.90;0.90;;;;;;;17.62;80.60;96264.66;4975149;28;20185;-54
2021/10/04 00:16:17;;;;;;;1.30;1.20;;;;;;;17.66;80.50;96264.88;4975642;28;20194;-54
2021/10/04 00:18:42;;;;;;;0.93;0.83;;;;;;;17.65;81.40;96260.63;4975429;28;20174;-54
2021/10/04 00:21:08;;;;;;;1.17;1.17;;;;;;;17.62;82.08;96259.31;4975431;28;20656;-58
2021/10/04 00:23:33;;;;;;;0.80;0.80;;;;;;;17.57;82.36;96247.91;4974733;28;20178;-58
2021/10/04 00:25:59;;;;;;;1.30;0.90;;;;;;;17.55;81.98;96247.41;4975014;28;20214;-59
2021/10/04 00:28:24;;;;;;;0.90;0.90;;;;;;;17.59;82.16;96253.75;4975521;28;20629;-58
2021/10/04 00:30:49;;;;;;;1.37;1.27;;;;;;;17.69;81.44;96259.81;4975158;28;20260;-58
2021/10/04 00:33:15;;;;;;;1.30;1.20;;;;;;;17.65;81.38;96263.28;4974831;28;20253;-54
2021/10/04 00:35:40;;;;;;;1.00;1.00;;;;;;;17.51;81.40;96260.44;4974889;28;20223;-53
2021/10/04 00:38:06;;;;;;;0.70;0.70;;;;;;;17.52;82.12;96256.69;4974858;28;20724;-54
2021/10/04 00:40:34;;;;;;;0.90;0.90;;;;;;;17.64;81.87;96251.88;4975045;28;20174;-54
2021/10/04 00:43:00;;;;;;;1.90;1.13;;;;;;;17.66;82.01;96255.06;4974668;28;20174;-54
2021/10/04 00:45:27;;;;;;;1.43;0.80;;;;;;;17.72;81.86;96255.84;4974856;28;20433;-53
2021/10/04 00:47:53;;;;;;;1.47;0.90;;;;;;;17.74;81.78;96262.47;4974837;28;20425;-54
2021/10/04 00:50:20;;;;;;;1.30;1.03;;;;;;;17.75;80.79;96265.91;4975086;28;20414;-53
2021/10/04 00:52:45;;;;;;;0.93;0.90;;;;;;;17.78;80.58;96260.84;4974582;28;20262;-54
2021/10/04 00:55:12;;;;;;;1.30;1.20;;;;;;;17.72;80.10;96275.22;4974811;28;20928;-54
2021/10/04 00:57:39;;;;;;;2.20;0.93;;;;;;;17.50;80.38;96282.78;4974809;28;20260;-54
2021/10/04 01:00:07;;;;;;;1.47;1.10;;;;;;;17.42;80.79;96275.31;4974667;28;20402;-58
2021/10/04 01:02:33;;;;;;;1.93;1.23;;;;;;;17.38;80.74;96277.72;4974645;28;20919;-58
2021/10/04 01:04:58;;;;;;;0.90;0.80;;;;;;;17.43;80.56;96267.06;4974319;28;20433;-58
2021/10/04 01:07:23;;;;;;;1.17;0.90;;;;;;;17.53;80.74;96262.81;4974750;28;20254;-53
2021/10/04 01:09:49;;;;;;;1.10;1.00;;;;;;;17.48;81.40;96263.63;4973522;28;20202;-58
2021/10/04 01:12:15;;;;;;;0.87;0.87;;;;;;;17.53;80.79;96268.13;4974469;28;20743;-58
2021/10/04 01:14:40;;;;;;;1.23;0.90;;;;;;;17.41;80.12;96265.75;4974158;28;20170;-59
2021/10/04 01:17:06;;;;;;;0.90;0.90;;;;;;;17.20;78.53;96266.88;4974505;28;20413;-58
2021/10/04 01:19:31;;;;;;;1.60;0.90;;;;;;;16.97;78.70;96268.25;4974634;28;20213;-54
2021/10/04 01:21:56;;;;;;;1.17;0.83;;;;;;;16.89;79.35;96270.63;4974549;28;20170;-58
2021/10/04 01:24:22;;;;;;;0.80;0.80;;;;;;;16.78;79.35;96267.19;4974202;28;20181;-54
2021/10/04 01:26:48;;;;;;;0.70;0.70;;;;;;;16.76;78.47;96258.69;4974305;28;20549;-53
2021/10/04 01:29:13;;;;;;;1.03;0.70;;;;;;;16.73;77.57;96266.41;4974565;28;20178;-58
2021/10/04 01:31:39;;;;;;;4.60;0.67;;;;;;;16.69;78.67;96270.63;4974540;28;20229;-53
2021/10/04 01:34:05;;;;;;;1.33;0.60;;;;;;;16.63;78.62;96271.72;4974044;28;20174;-58
2021/10/04 01:36:30;;;;;;;2.40;0.70;;;;;;;16.70;78.92;96280.19;4976522;28;20762;-53
2021/10/04 01:38:58;;;;;;;0.70;0.70;;;;;;;16.68;79.18;96290.28;4978041;28;20226;-58
2021/10/04 01:41:25;;;;;;;0.70;0.70;;;;;;;16.69;78.05;96291.88;4978185;28;20413;-53
2021/10/04 01:43:52;;;;;;;0.53;0.53;;;;;;;16.63;78.57;96292.94;4977974;28;20428;-59
2021/10/04 01:46:19;;;;;;;0.67;0.67;;;;;;;16.74;78.14;96290.00;4977967;28;20465;-58
2021/10/04 01:48:45;;;;;;;2.73;0.80;;;;;;;16.79;76.79;96291.88;4978134;28;20418;-58
2021/10/04 01:51:10;;;;;;;0.63;0.63;;;;;;;16.77;77.22;96286.03;4978062;28;20461;-59
2021/10/04 01:53:36;;;;;;;0.60;0.60;;;;;;;16.78;77.67;96291.06;4977529;28;20835;-58
2021/10/04 01:56:01;;;;;;;0.70;0.70;;;;;;;16.82;77.75;96294.00;4978147;28;20723;-53
2021/10/04 01:58:29;;;;;;;1.23;0.63;;;;;;;16.85;78.00;96304.09;4977945;28;20186;-53
2021/10/04 02:00:55;;;;;;;0.70;0.70;;;;;;;16.93;78.37;96307.00;4977832;28;20178;-59
2021/10/04 02:03:21;;;;;;;0.90;0.90;;;;;;;17.02;78.35;96315.22;4977627;28;20845;-54
2021/10/04 02:05:46;;;;;;;0.90;0.90;;;;;;;17.00;78.00;96312.84;4977556;28;20465;-53
2021/10/04 02:08:12;;;;;;;0.73;0.60;;;;;;;16.98;79.15;96316.81;4978282;28;20174;-58
2021/10/04 02:10:40;;;;;;;0.73;0.73;;;;;;;17.04;79.15;96315.75;4977952;28;20174;-58
2021/10/04 02:13:09;;;;;;;0.90;0.90;;;;;;;17.00;79.60;96320.00;4977378;28;20169;-53
2021/10/04 02:15:37;;;;;;;0.90;0.70;;;;;;;17.01;79.86;96321.59;4977530;28;20744;-53
2021/10/04 02:18:03;;;;;;;0.80;0.80;;;;;;;17.00;79.98;96312.03;4977674;28;20420;-58
2021/10/04 02:20:31;;;;;;;1.13;1.03;;;;;;;17.01;80.54;96313.63;4977568;28;20414;-58
2021/10/04 02:23:05;;;;;;;0.73;0.73;;;;;;;17.00;80.43;96322.66;4977358;28;20428;-53
2021/10/04 02:25:32;;;;;;;1.43;1.00;;;;;;;16.89;80.95;96324.50;4977632;28;20449;-53
2021/10/04 02:27:58;;;;;;;1.10;0.90;;;;;;;16.76;81.17;96324.25;4977740;28;20417;-58
2021/10/04 02:30:24;;;;;;;0.60;0.60;;;;;;;16.49;82.25;96315.75;4977366;28;20414;-58
2021/10/04 02:32:50;;;;;;;0.60;0.60;;;;;;;16.42;82.74;96313.31;4977008;28;20248;-54
2021/10/04 02:35:17;;;;;;;0.80;0.77;;;;;;;16.35;83.09;96310.13;4977303;28;20935;-54
2021/10/04 02:37:42;;;;;;;0.70;0.70;;;;;;;16.13;83.97;96289.13;4977009;28;20781;-58
2021/10/04 02:40:09;;;;;;;0.77;0.70;;;;;;;16.19;84.29;96295.25;4977087;28;20421;-53
2021/10/04 02:42:36;;;;;;;1.00;0.80;;;;;;;16.22;84.20;96308.78;4976898;28;20178;-56
2021/10/04 02:45:02;;;;;;;0.80;0.80;;;;;;;15.89;85.74;96313.72;4977119;28;20441;-53
2021/10/04 02:47:27;;;;;;;0.80;0.80;;;;;;;15.76;87.00;96314.19;4977060;28;20437;-53
2021/10/04 02:49:53;;;;;;;0.60;0.60;;;;;;;15.76;87.16;96312.31;4976788;28;20888;-58
2021/10/04 02:52:21;;;;;;;1.73;0.80;;;;;;;15.79;86.85;96311.00;4976998;28;20224;-54
2021/10/04 02:54:46;;;;;;;0.70;0.70;;;;;;;15.70;87.85;96320.50;4976622;28;20178;-58
2021/10/04 02:57:12;;;;;;;0.90;0.80;;;;;;;15.61;88.13;96312.28;4976955;28;20778;-58
2021/10/04 02:59:37;;;;;;;1.50;0.83;;;;;;;15.73;87.61;96298.78;4976866;28;20551;-53
2021/10/04 03:02:03;;;;;;;0.83;0.57;;;;;;;15.76;87.81;96283.19;4976834;28;20252;-58
2021/10/04 03:04:28;;;;;;;0.60;0.60;;;;;;;15.85;87.53;96281.63;4976314;28;20196;-53
2021/10/04 03:06:54;;;;;;;1.23;0.80;;;;;;;15.98;86.42;96297.03;4976735;28;20735;-53
2021/10/04 03:09:19;;;;;;;0.80;0.80;;;;;;;15.97;86.07;96313.19;4976912;28;20305;-59
2021/10/04 03:11:45;;;;;;;1.20;1.10;;;;;;;15.98;86.08;96317.47;4976570;28;20232;-53
2021/10/04 03:14:10;;;;;;;0.83;0.83;;;;;;;15.79;86.50;96316.31;4976094;28;20182;-58
2021/10/04 03:16:35;;;;;;;0.80;0.80;;;;;;;15.77;86.76;96316.56;4976254;28;20201;-54
2021/10/04 03:19:01;;;;;;;0.97;0.70;;;;;;;15.62;87.54;96319.16;4976276;28;20174;-54
2021/10/04 03:21:26;;;;;;;1.00;0.93;;;;;;;15.76;86.95;96320.25;4976858;28;20260;-58
2021/10/04 03:23:52;;;;;;;1.00;0.90;;;;;;;15.76;87.11;96317.63;4976009;28;20174;-54
2021/10/04 03:26:17;;;;;;;0.80;0.80;;;;;;;15.78;87.54;96318.16;4976265;28;20205;-53
2021/10/04 03:28:43;;;;;;;0.93;0.70;;;;;;;15.69;88.37;96309.13;4976327;28;20224;-58
2021/10/04 03:31:08;;;;;;;1.00;0.90;;;;;;;15.74;88.30;96313.66;4976225;28;20205;-58
2021/10/04 03:33:33;;;;;;;1.00;0.93;;;;;;;15.76;87.93;96325.56;4975913;28;20528;-58
2021/10/04 03:35:59;;;;;;;2.37;1.20;;;;;;;15.83;87.47;96323.50;4976040;28;20197;-53
2021/10/04 03:38:24;;;;;;;0.73;0.73;;;;;;;15.89;87.32;96333.03;4976037;28;20237;-58
2021/10/04 03:40:50;;;;;;;0.70;0.70;;;;;;;15.90;87.33;96324.06;4976055;28;20189;-54
2021/10/04 03:43:15;;;;;;;0.83;0.80;;;;;;;15.95;87.21;96323.25;4975758;28;20216;-58
2021/10/04 03:45:41;;;;;;;0.90;0.90;;;;;;;16.08;86.31;96328.09;4975833;28;20197;-53
2021/10/04 03:48:06;;;;;;;1.83;1.43;;;;;;;16.10;86.15;96329.44;4975780;28;20186;-58
2021/10/04 03:50:32;;;;;;;0.90;0.90;;;;;;;16.11;85.81;96332.84;4975722;28;20212;-58
2021/10/04 03:52:57;;;;;;;1.60;0.87;;;;;;;16.13;85.61;96336.84;4975588;28;20265;-54
2021/10/04 03:55:23;;;;;;;1.73;0.80;;;;;;;16.07;85.29;96337.09;4975703;28;20435;-53
2021/10/04 03:57:48;;;;;;;1.33;0.90;;;;;;;16.09;85.26;96342.91;4975758;28;20205;-54
2021/10/04 04:00:18;;;;;;;0.90;0.63;;;;;;;16.01;85.68;96344.25;4974221;28;20626;-53
2021/10/04 04:02:43;;;;;;;0.73;0.73;;;;;;;16.10;85.08;96349.84;4975293;28;20712;-58
2021/10/04 04:05:09;;;;;;;0.90;0.90;;;;;;;15.92;86.31;96347.66;4975549;28;20430;-54
2021/10/04 04:07:35;;;;;;;1.23;1.07;;;;;;;15.79;86.56;96340.16;4975702;28;20209;-54
2021/10/04 04:10:00;;;;;;;0.90;0.90;;;;;;;15.88;86.50;96346.56;4975604;28;20417;-53
2021/10/04 04:12:26;;;;;;;0.80;0.80;;;;;;;15.88;86.09;96343.91;4975447;28;20229;-59
2021/10/04 04:14:51;;;;;;;1.07;1.00;;;;;;;15.93;86.09;96346.56;4975102;28;20665;-55
2021/10/04 04:17:17;;;;;;;0.83;0.80;;;;;;;15.85;86.84;96345.22;4975458;28;20238;-58
2021/10/04 04:19:42;;;;;;;0.80;0.80;;;;;;;15.80;87.34;96349.72;4975109;28;20269;-59
2021/10/04 04:22:08;;;;;;;1.30;1.20;;;;;;;15.75;86.74;96373.53;4975380;28;20193;-59
2021/10/04 04:24:33;;;;;;;1.30;1.20;;;;;;;15.80;86.95;96384.94;4974790;28;20570;-58
2021/10/04 04:27:04;;;;;;;1.80;1.50;;;;;;;15.81;86.97;96365.34;4975294;28;20178;-59
2021/10/04 04:29:29;;;;;;;1.50;1.40;;;;;;;15.76;87.84;96352.06;4975342;28;20203;-55
2021/10/04 04:31:55;;;;;;;1.47;0.90;;;;;;;15.69;88.18;96353.38;4975122;28;20489;-54
2021/10/04 04:34:20;;;;;;;1.43;1.07;;;;;;;15.76;87.56;96360.00;4974858;28;20177;-54
2021/10/04 04:36:46;;;;;;;0.93;0.93;;;;;;;15.81;87.92;96359.25;4975142;28;20256;-60
2021/10/04 04:39:12;;;;;;;1.07;0.90;;;;;;;15.80;88.03;96363.75;4974994;28;20589;-53
2021/10/04 04:41:37;;;;;;;1.00;1.00;;;;;;;15.91;87.70;96359.28;4975033;28;20500;-53
2021/10/04 04:44:02;;;;;;;1.10;0.80;;;;;;;15.98;87.39;96354.56;4974557;28;20590;-55
2021/10/04 04:46:28;;;;;;;0.93;0.90;;;;;;;16.07;87.33;96364.38;4973599;28;20213;-54
2021/10/04 04:48:53;;;;;;;1.30;1.20;;;;;;;16.11;87.01;96362.81;4974807;28;20170;-53
2021/10/04 04:51:19;;;;;;;1.10;1.00;;;;;;;16.08;86.73;96366.00;4974750;28;20657;-54
2021/10/04 04:53:45;;;;;;;1.33;1.20;;;;;;;16.14;86.38;96375.53;4974675;28;20266;-53
2021/10/04 04:56:11;;;;;;;1.10;0.90;;;;;;;16.12;86.52;96375.03;4974515;28;20225;-60
2021/10/04 04:58:37;;;;;;;1.33;1.23;;;;;;;16.15;86.74;96376.34;4974833;28;20405;-56
2021/10/04 05:01:04;;;;;;;1.40;1.30;;;;;;;16.19;84.71;96380.09;4974548;28;20452;-59
2021/10/04 05:03:30;;;;;;;3.73;1.63;;;;;;;16.15;85.67;96393.06;4974470;28;20533;-54
2021/10/04 05:05:55;;;;;;;2.13;1.93;;;;;;;16.12;86.15;96393.59;4974708;28;20436;-58
2021/10/04 05:08:21;;;;;;;2.63;2.30;;;;;;;16.20;86.05;96401.03;4974703;28;20422;-54
2021/10/04 05:10:46;;;;;;;4.63;3.10;;;;;;;16.17;86.37;96400.75;4973774;28;20229;-54
2021/10/04 05:13:12;;;;;;;3.83;2.17;;;;;;;16.06;87.37;96399.13;4974187;28;20203;-58
2021/10/04 05:15:37;;;;;;;1.80;1.40;;;;;;;16.03;88.00;96394.34;4975004;28;20201;-58
2021/10/04 05:18:02;;;;;;;9.30;6.90;;;;;;;16.14;87.08;96396.75;4974630;28;20170;-54
2021/10/04 05:20:28;;;;;;;10.30;8.00;;;;;;;16.16;87.04;96397.28;4974425;28;20265;-54
2021/10/04 05:22:54;;;;;;;5.00;4.20;;;;;;;16.18;86.82;96418.25;4974100;28;20208;-58
2021/10/04 05:25:19;;;;;;;15.73;10.60;;;;;;;16.21;86.62;96429.16;4974426;28;20198;-54
2021/10/04 05:27:44;;;;;;;2.50;2.30;;;;;;;16.17;86.98;96427.25;4974622;28;20187;-58
2021/10/04 05:30:11;;;;;;;5.07;1.97;;;;;;;16.18;87.17;96423.53;4974509;28;20248;-54
2021/10/04 05:32:37;;;;;;;1.47;1.00;;;;;;;16.12;87.01;96432.56;4974014;28;20293;-57
2021/10/04 05:35:03;;;;;;;1.00;1.00;;;;;;;16.11;85.72;96438.91;4974274;28;20433;-58
2021/10/04 05:37:28;;;;;;;4.50;1.87;;;;;;;16.10;85.67;96435.47;4972994;28;20440;-59
2021/10/04 05:39:54;;;;;;;29.50;19.40;;;;;;;16.03;86.06;96437.53;4974534;28;20721;-54
2021/10/04 05:42:19;;;;;;;11.73;7.47;;;;;;;15.96;86.50;96442.25;4974257;28;20174;-54
2021/10/04 05:44:45;;;;;;;1.17;1.07;;;;;;;15.88;86.84;96444.63;4973744;28;20174;-54
2021/10/04 05:47:12;;;;;;;4.53;1.97;;;;;;;15.94;86.67;96449.66;4974464;28;20174;-54
2021/10/04 05:49:38;;;;;;;3.03;1.30;;;;;;;15.96;86.53;96452.09;4974332;28;20906;-54
2021/10/04 05:52:03;;;;;;;3.87;2.80;;;;;;;15.96;86.33;96444.13;4974417;28;20453;-54
2021/10/04 05:54:29;;;;;;;2.93;2.63;;;;;;;15.89;87.35;96440.94;4973886;28;20552;-58
2021/10/04 05:56:54;;;;;;;3.13;2.03;;;;;;;15.95;87.29;96453.13;4974256;28;20194;-54
2021/10/04 05:59:19;;;;;;;104.40;56.70;;;;;;;16.03;87.01;96448.13;4972847;28;20201;-58
2021/10/04 06:01:45;;;;;;;8.63;7.20;;;;;;;15.91;87.88;96444.09;4974132;28;20648;-58
2021/10/04 06:04:10;;;;;;;3.63;2.70;;;;;;;15.94;88.02;96440.94;4973853;28;20567;-54
2021/10/04 06:06:35;;;;;;;2.43;2.23;;;;;;;15.86;88.91;96444.88;4974133;28;20669;-54
2021/10/04 06:09:01;;;;;;;4.50;1.73;;;;;;;15.85;89.08;96439.84;4974129;28;20174;-54
2021/10/04 06:11:26;;;;;;;3.57;2.10;;;;;;;15.84;89.41;96441.69;4974117;28;20202;-54
2021/10/04 06:13:52;;;;;;;2.23;2.03;;;;;;;15.89;89.30;96441.69;4973584;28;20181;-54
2021/10/04 06:16:17;;;;;;;2.23;1.80;;;;;;;15.95;89.22;96439.88;4974055;28;20201;-54
2021/10/04 06:18:43;;;;;;;3.30;2.13;;;;;;;16.03;89.23;96447.34;4973785;28;20524;-54
2021/10/04 06:21:09;;;;;;;3.37;2.33;;;;;;;16.15;88.67;96445.28;4973928;28;20187;-58
2021/10/04 06:23:34;;;;;;;3.60;2.30;;;;;;;16.18;88.62;96450.88;4977006;28;20182;-54
2021/10/04 06:26:00;;;;;;;3.47;2.10;;;;;;;16.21;88.93;96453.03;4977474;28;20441;-54
2021/10/04 06:28:25;;;;;;;2.77;1.83;;;;;;;16.31;88.42;96458.34;4977411;28;20232;-57
2021/10/04 06:30:51;;;;;;;2.60;2.40;;;;;;;16.29;88.71;96459.66;4977756;28;20209;-57
2021/10/04 06:33:16;;;;;;;3.20;2.40;;;;;;;16.24;89.09;96457.81;4977027;28;20249;-54
2021/10/04 06:35:41;;;;;;;2.27;2.17;;;;;;;16.27;89.22;96451.16;4977161;28;20197;-54
2021/10/04 06:38:07;;;;;;;3.30;2.30;;;;;;;16.27;89.40;96451.16;4976938;28;20273;-54
2021/10/04 06:40:32;;;;;;;4.07;2.30;;;;;;;16.26;89.37;96452.22;4977119;28;20261;-54
2021/10/04 06:42:58;;;;;;;5.47;2.80;;;;;;;16.32;89.21;96467.13;4976552;28;20257;-58
2021/10/04 06:45:23;;;;;;;3.40;3.10;;;;;;;16.32;88.97;96475.84;4977263;28;20198;-58
2021/10/04 06:47:48;;;;;;;6.53;3.07;;;;;;;16.34;88.83;96489.66;4976860;28;20181;-54
2021/10/04 06:50:14;;;;;;;3.00;2.73;;;;;;;16.34;88.31;96494.97;4976761;28;20567;-58
2021/10/04 06:52:41;;;;;;;3.17;2.90;;;;;;;16.16;89.06;96500.69;4976507;28;20204;-54
2021/10/04 06:55:08;;;;;;;3.17;2.97;;;;;;;16.21;88.99;96503.41;4976786;28;20216;-54
2021/10/04 06:57:36;;;;;;;4.53;3.00;;;;;;;16.25;88.44;96506.34;4976822;28;20431;-54
2021/10/04 07:00:04;;;;;;;4.20;3.30;;;;;;;16.29;88.79;96510.03;4976841;28;20418;-58
2021/10/04 07:02:29;;;;;;;3.80;3.27;;;;;;;16.30;88.92;96509.00;4977100;28;20418;-59
2021/10/04 07:04:54;;;;;;;4.13;2.90;;;;;;;16.14;89.15;96513.41;4976246;28;20860;-58
2021/10/04 07:07:20;;;;;;;3.10;2.90;;;;;;;16.22;89.02;96526.19;4976513;28;20178;-57
2021/10/04 07:09:45;;;;;;;3.07;2.80;;;;;;;16.25;88.81;96532.84;4976696;28;20178;-59
2021/10/04 07:12:10;;;;;;;3.97;3.30;;;;;;;16.28;88.64;96538.44;4976585;28;20250;-54
2021/10/04 07:14:36;;;;;;;4.03;2.43;;;;;;;16.28;88.92;96540.28;4975856;28;20186;-57
2021/10/04 07:17:01;;;;;;;4.27;2.63;;;;;;;16.34;88.90;96531.31;4976317;28;20170;-57
2021/10/04 07:19:27;;;;;;;3.40;3.10;;;;;;;16.38;88.94;96533.19;4976421;28;20249;-54
2021/10/04 07:21:52;;;;;;;4.83;3.33;;;;;;;16.42;89.00;96546.72;4976481;28;20174;-54
2021/10/04 07:24:21;;;;;;;3.73;3.37;;;;;;;16.40;88.92;96543.53;4975649;28;20589;-54
2021/10/04 07:26:47;;;;;;;4.73;3.50;;;;;;;16.37;89.18;96549.34;4975894;28;20194;-58
2021/10/04 07:29:14;;;;;;;3.70;3.40;;;;;;;16.36;89.21;96550.38;4976338;28;20423;-54
2021/10/04 07:31:39;;;;;;;4.27;3.70;;;;;;;16.37;89.23;96552.00;4975929;28;20461;-58
2021/10/04 07:34:06;;;;;;;3.30;3.00;;;;;;;16.39;89.13;96550.69;4974951;28;20475;-54
2021/10/04 07:36:32;;;;;;;4.50;3.60;;;;;;;16.41;89.23;96547.78;4976046;28;20668;-54
2021/10/04 07:38:58;;;;;;;3.63;3.20;;;;;;;16.45;89.17;96549.66;4976051;28;20417;-58
2021/10/04 07:41:23;;;;;;;3.40;2.90;;;;;;;16.40;89.09;96557.59;4976087;28;20417;-58
2021/10/04 07:43:48;;;;;;;3.00;2.70;;;;;;;16.43;88.72;96562.38;4975585;28;20652;-58
2021/10/04 07:46:15;;;;;;;3.70;2.90;;;;;;;16.42;89.07;96576.72;4974814;28;20222;-57
2021/10/04 07:48:40;;;;;;;2.50;2.30;;;;;;;16.38;89.07;96580.13;4975920;28;20426;-54
2021/10/04 07:51:07;;;;;;;2.40;2.20;;;;;;;16.08;87.75;96572.78;4975841;28;20288;-57
2021/10/04 07:53:33;;;;;;;2.83;2.40;;;;;;;16.15;89.20;96585.81;4975442;28;20633;-57
2021/10/04 07:55:59;;;;;;;3.63;2.43;;;;;;;16.24;88.97;96592.22;4975527;28;20488;-57
2021/10/04 07:58:24;;;;;;;2.70;2.50;;;;;;;16.25;89.23;96601.81;4975604;28;20417;-57
2021/10/04 08:00:50;;;;;;;2.70;2.50;;;;;;;16.18;89.16;96607.31;4975738;28;20188;-57
2021/10/04 08:03:15;;;;;;;3.20;2.90;;;;;;;16.12;89.53;96600.38;4975351;28;20652;-58
2021/10/04 08:05:41;;;;;;;16.73;11.50;;;;;;;16.13;89.41;96603.81;4975620;28;20197;-54
2021/10/04 08:08:06;;;;;;;7.10;5.00;;;;;;;16.16;89.90;96600.69;4975606;28;20618;-59
2021/10/04 08:10:31;;;;;;;8.67;7.30;;;;;;;16.23;89.91;96590.66;4975545;28;20189;-57
2021/10/04 08:12:59;;;;;;;4.00;3.70;;;;;;;16.19;90.11;96586.91;4975346;28;20209;-54
2021/10/04 08:15:25;;;;;;;3.00;2.70;;;;;;;16.24;89.68;96590.38;4975273;28;20201;-58
2021/10/04 08:17:50;;;;;;;23.80;14.13;;;;;;;16.22;89.94;96596.97;4975331;28;20422;-57
2021/10/04 08:20:16;;;;;;;17.57;10.77;;;;;;;16.24;90.16;96603.66;4975407;28;20205;-57
2021/10/04 08:22:41;;;;;;;3.40;2.50;;;;;;;16.21;90.15;96598.84;4974990;28;20599;-57
2021/10/04 08:25:10;;;;;;;3.20;2.80;;;;;;;16.33;89.32;96601.31;4975158;28;20202;-57
2021/10/04 08:27:36;;;;;;;39.03;34.73;;;;;;;16.32;89.41;96613.75;4975229;28;20589;-57
2021/10/04 08:30:02;;;;;;;18.43;16.43;;;;;;;16.35;89.17;96621.22;4975068;28;20417;-57
2021/10/04 08:32:27;;;;;;;4.43;4.13;;;;;;;16.34;89.38;96632.09;4975160;28;20684;-57
2021/10/04 08:34:53;;;;;;;3.47;3.20;;;;;;;16.23;89.28;96622.47;4974770;28;20434;-53
2021/10/04 08:37:18;;;;;;;3.53;3.13;;;;;;;16.20;88.97;96617.66;4973579;28;20668;-54
2021/10/04 08:39:44;;;;;;;1.70;1.50;;;;;;;16.20;88.93;96622.94;4975099;28;20182;-57
2021/10/04 08:42:09;;;;;;;1.87;1.77;;;;;;;16.16;89.08;96617.34;4974304;28;20182;-54
2021/10/04 08:44:36;;;;;;;2.17;1.97;;;;;;;16.06;89.73;96630.56;4974516;28;20185;-54
2021/10/04 08:47:05;;;;;;;1.83;1.70;;;;;;;16.10;89.78;96639.59;4974794;28;20586;-54
2021/10/04 08:49:33;;;;;;;2.57;1.67;;;;;;;16.06;89.45;96648.31;4974948;28;20509;-54
2021/10/04 08:51:59;;;;;;;1.70;1.60;;;;;;;15.91;89.29;96648.97;4974884;28;20964;-57
2021/10/04 08:54:25;;;;;;;1.97;1.80;;;;;;;15.86;89.71;96648.94;4974592;28;20484;-54
2021/10/04 08:56:52;;;;;;;1.80;1.70;;;;;;;15.87;89.85;96639.13;4974617;28;20928;-57
2021/10/04 08:59:17;;;;;;;1.57;1.47;;;;;;;15.85;89.83;96634.06;4974749;28;20174;-59
2021/10/04 09:01:43;;;;;;;2.33;1.57;;;;;;;15.70;90.68;96643.72;4975044;28;20488;-54
2021/10/04 09:04:09;;;;;;;1.27;1.17;;;;;;;15.64;90.93;96634.94;4974338;28;20189;-54
2021/10/04 09:06:40;;;;;;;1.53;1.20;;;;;;;15.58;91.90;96635.16;4974761;28;20202;-58
2021/10/04 09:09:07;;;;;;;1.10;1.10;;;;;;;15.61;91.46;96639.94;4974543;28;20177;-58
2021/10/04 09:11:39;;;;;;;1.43;0.90;;;;;;;15.66;91.29;96637.34;4974706;28;20453;-54
2021/10/04 09:14:27;;;;;;;1.00;0.83;;;;;;;15.60;91.59;96641.78;4974231;28;20410;-57
2021/10/04 09:16:56;;;;;;;1.60;0.90;;;;;;;15.47;92.23;96633.44;4974398;28;20536;-54
2021/10/04 09:19:34;;;;;;;1.13;1.00;;;;;;;15.64;92.13;96634.13;4974597;28;20946;-54
2021/10/04 09:22:20;;;;;;;1.00;0.60;;;;;;;15.53;92.28;96635.88;4974694;28;20409;-58
2021/10/04 09:24:57;;;;;;;5.70;0.60;;;;;;;15.44;92.05;96646.13;4974074;28;20465;-57
2021/10/04 09:27:24;;;;;;;1.23;0.67;;;;;;;15.55;91.97;96641.72;4974621;28;20456;-54
2021/10/04 09:29:51;;;;;;;1.00;0.70;;;;;;;15.72;91.22;96639.00;4974578;28;20402;-54
2021/10/04 09:32:38;;;;;;;0.77;0.77;;;;;;;15.74;91.32;96648.31;4974512;28;20465;-57
2021/10/04 09:35:21;;;;;;;0.87;0.60;;;;;;;15.78;91.71;96645.94;4974307;28;20516;-57
2021/10/04 09:37:49;;;;;;;2.23;1.30;;;;;;;15.99;90.16;96650.38;4974313;28;20436;-55
2021/10/04 09:40:38;;;;;;;1.70;1.60;;;;;;;15.91;90.95;96656.91;4974497;28;20440;-54
2021/10/04 09:43:10;;;;;;;0.60;0.53;;;;;;;15.91;90.32;96656.13;4974308;28;20412;-57
2021/10/04 09:45:36;;;;;;;1.10;0.60;;;;;;;15.72;90.62;96653.03;4974385;28;20433;-54
2021/10/04 09:48:10;;;;;;;1.20;1.10;;;;;;;15.77;89.91;96655.75;4974381;28;20457;-59
2021/10/04 09:50:35;;;;;;;1.27;0.67;;;;;;;15.84;89.82;96650.22;4974353;28;20180;-54
2021/10/04 09:53:04;;;;;;;0.80;0.80;;;;;;;15.83;90.08;96643.34;4973708;28;20449;-57
2021/10/04 09:55:33;;;;;;;0.80;0.50;;;;;;;15.70;89.56;96633.94;4972857;28;20669;-57
2021/10/04 09:58:03;;;;;;;1.00;0.50;;;;;;;15.80;89.45;96636.69;4976997;28;20457;-57
2021/10/04 10:00:33;;;;;;;0.57;0.50;;;;;;;15.79;89.28;96639.59;4977973;28;20429;-57
2021/10/04 10:03:00;;;;;;;0.40;0.40;;;;;;;15.84;89.33;96632.47;4977594;28;20414;-54
2021/10/04 10:05:27;;;;;;;0.50;0.50;;;;;;;15.98;88.57;96644.25;4977780;28;20437;-54
2021/10/04 10:07:54;;;;;;;2.00;1.33;;;;;;;16.02;88.46;96637.41;4977700;28;20413;-58
2021/10/04 10:10:21;;;;;;;1.00;0.70;;;;;;;16.08;86.55;96641.72;4977724;28;20464;-55
2021/10/04 10:12:46;;;;;;;1.43;0.50;;;;;;;16.01;87.08;96651.72;4977201;28;20461;-53
2021/10/04 10:15:23;;;;;;;0.80;0.60;;;;;;;16.04;87.52;96650.41;4977753;28;20959;-53
2021/10/04 10:17:53;;;;;;;1.53;0.60;;;;;;;16.14;87.67;96645.97;4977491;28;20648;-53
2021/10/04 10:20:20;;;;;;;0.60;0.60;;;;;;;16.24;88.07;96639.97;4977659;28;20414;-56
2021/10/04 10:22:52;;;;;;;3.17;2.47;;;;;;;16.32;86.51;96645.59;4977269;28;20766;-56
2021/10/04 10:25:36;;;;;;;3.30;1.70;;;;;;;16.32;87.27;96631.53;4977580;28;20804;-53
2021/10/04 10:28:27;;;;;;;78.10;44.60;;;;;;;16.35;87.73;96623.88;4977440;28;20410;-53
2021/10/04 10:30:53;;;;;;;13.80;8.50;;;;;;;16.45;88.00;96617.81;4977170;28;20453;-53
2021/10/04 10:33:47;;;;;;;0.90;0.50;;;;;;;16.62;87.74;96621.16;4976780;28;20409;-56
2021/10/04 10:36:17;;;;;;;1.90;0.70;;;;;;;16.58;88.37;96621.94;4977147;28;20426;-56
2021/10/04 10:38:56;;;;;;;1.17;0.73;;;;;;;16.68;88.16;96624.63;4977096;28;20433;-56
2021/10/04 10:41:21;;;;;;;0.70;0.60;;;;;;;16.65;88.64;96625.16;4977282;28;20935;-55
2021/10/04 10:44:03;;;;;;;5.17;3.50;;;;;;;16.66;88.96;96621.44;4976681;28;20406;-58
2021/10/04 10:46:50;;;;;;;0.80;0.77;;;;;;;16.77;88.24;96623.91;4977127;28;20204;-55
2021/10/04 10:49:52;;;;;;;1.03;0.50;;;;;;;16.76;87.98;96622.28;4977202;28;20750;-55
2021/10/04 10:52:19;;;;;;;0.50;0.50;;;;;;;16.80;86.81;96618.06;4976978;28;20485;-60
2021/10/04 10:54:45;;;;;;;0.50;0.40;;;;;;;16.81;85.94;96622.34;4976592;28;20409;-58
2021/10/04 10:57:10;;;;;;;0.73;0.60;;;;;;;16.89;84.77;96627.13;4976736;28;20979;-58
2021/10/04 10:59:36;;;;;;;1.70;0.60;;;;;;;16.77;85.07;96623.91;4976998;28;20569;-58
2021/10/04 11:02:01;;;;;;;0.60;0.60;;;;;;;16.81;85.55;96622.34;4977128;28;20170;-58
2021/10/04 11:04:40;;;;;;;0.90;0.60;;;;;;;16.88;85.66;96616.78;4976499;28;20174;-55
2021/10/04 11:07:06;;;;;;;0.83;0.43;;;;;;;16.88;85.60;96622.88;4976828;28;20174;-60
2021/10/04 11:10:09;;;;;;;0.70;0.40;;;;;;;16.88;85.83;96622.88;4975447;28;20436;-55
2021/10/04 11:13:23;;;;;;;1.53;0.50;;;;;;;16.91;85.54;96618.91;4976568;28;20252;-58
2021/10/04 11:15:49;;;;;;;0.80;0.70;;;;;;;16.91;82.87;96625.03;4954933;29;20445;-53
2021/10/04 11:18:15;;;;;;;0.60;0.60;;;;;;;16.91;83.35;96624.22;4955048;29;20814;-57
2021/10/04 11:20:41;;;;;;;1.30;0.70;;;;;;;16.97;83.98;96615.22;4966591;28;20265;-56
2021/10/04 11:23:09;;;;;;;0.70;0.70;;;;;;;16.92;85.38;96615.22;4976087;28;20449;-58
2021/10/04 11:25:42;;;;;;;0.70;0.70;;;;;;;17.03;86.39;96608.88;4976270;28;20492;-59
2021/10/04 11:28:08;;;;;;;1.23;0.90;;;;;;;16.98;86.48;96609.66;4976367;28;20420;-53
2021/10/04 11:30:55;;;;;;;2.00;0.70;;;;;;;16.99;87.04;96608.59;4974923;28;20484;-58
2021/10/04 11:33:22;;;;;;;0.70;0.70;;;;;;;16.99;87.33;96610.44;4975671;28;20457;-58